Aérodrome :
LOGIN :

S'inscrire | Disclaimer

   EN    FR    IT 

 










Légende :    VFR   VFR Marginal   IFR   IFR Intensif   IFR Très Intensif
Visi : 
Plafond : 
>= 8 km
>= 3000ft
5 à 8 km
1000 à 3000 ft
1500m à 5 km
500 à 1000 ft
800 à 1500m
200 à 500 ft
< 800m
< 200 ft
Symboles :   Orages  Brouillard  Fortes neiges  Fortes précipitations  Vent > 20 kt
SIGMETs :   Divers  Orages  Givrage  Turbulence  Onde Orograph.  Cendres Volcan.







- Altitude de l'aérodrome : 1470 ft
- Code IATA : KLU


LOWK - Klagenfurt

DERNIER METAR :
  • 180250Z AUTO 28003KT 9999 SCT003 BKN007 15/13 Q1017

METARs EXPIRÉS :
  • 180220Z AUTO 29004KT 9999 FEW004 BKN006 15/13 Q1017
  • 180150Z AUTO 32004KT 9999 FEW005 SCT006 BKN010 15/13 Q1017
  • 180120Z AUTO VRB02KT 9999 FEW006 BKN009 16/14 Q1016
  • 180050Z AUTO VRB01KT 9999 FEW005 BKN007 16/14 Q1016
  • 180020Z AUTO VRB01KT 9999 FEW006 SCT008 16/14 Q1016
  • 172350Z AUTO 31004KT 9999 BKN090 16/15 Q1016

TAF AMD TAF LOWK
Valide du 18 à 02h jusqu'au 19 à 00h UTC


180210Z 1802/1824 VRB02KT 9999 FEW050 SCT100 TX19/1813Z TN10/1824Z
PROB30
TEMPO 1802/1808 4000 BR BKN004
TEMPO 1812/1817 07008KT
Pas de NOTAMs connus pour ce terrain.



MET'MAP, la Météo Aéronautique d'un coup d'oeil ! - Copyright ORBIFLY Décembre 2007 - Disclaimer

ORBIFLY MET'MAP TEAM :

Programmation & Développement : Alexandra Zaïnal
Conception & Développement : Baudouin d'Aumeries
Co-Programmation & Développement : Marc-Olivier Méhu
Soutien technique & logistique : Manuel Goepfert

Contact : metmap@orbifly.com




SOURCES & CREDITS :

   NOAA